createdAt,value
2022-12-24T00:00:40.081Z,14.05
2022-12-24T00:03:06.912Z,14.10
2022-12-24T00:05:33.652Z,11.93
2022-12-24T00:08:00.373Z,12.85
2022-12-24T00:10:27.127Z,13.82
2022-12-24T00:12:53.816Z,13.18
2022-12-24T00:15:20.499Z,12.38
2022-12-24T00:17:47.182Z,13.32
2022-12-24T00:20:13.911Z,12.98
2022-12-24T00:22:40.692Z,11.07
2022-12-24T00:25:07.677Z,11.57
2022-12-24T00:27:34.396Z,10.27
2022-12-24T00:30:01.091Z,9.13
2022-12-24T00:32:27.739Z,8.85
2022-12-24T00:34:54.430Z,7.35
2022-12-24T00:37:21.138Z,6.35
2022-12-24T00:39:47.813Z,6.70
2022-12-24T00:42:14.547Z,6.60
2022-12-24T00:44:41.281Z,5.95
2022-12-24T00:47:12.006Z,4.05
2022-12-24T00:49:39.001Z,4.95
2022-12-24T00:52:05.735Z,5.00
2022-12-24T00:54:32.382Z,4.72
2022-12-24T00:56:59.108Z,4.55
2022-12-24T00:59:26.091Z,4.35
2022-12-24T01:01:52.887Z,4.30
2022-12-24T01:04:38.623Z,3.65
2022-12-24T01:07:05.375Z,3.75
2022-12-24T01:09:32.057Z,3.45
2022-12-24T01:11:58.806Z,4.13
2022-12-24T01:14:25.568Z,3.28
2022-12-24T01:16:52.232Z,3.53
2022-12-24T01:19:18.888Z,3.15
2022-12-24T01:21:45.620Z,2.88
2022-12-24T01:24:15.356Z,3.78
2022-12-24T01:26:42.952Z,2.85
2022-12-24T01:29:09.819Z,2.78
2022-12-24T01:31:36.584Z,3.97
2022-12-24T01:34:03.329Z,3.35
2022-12-24T01:36:30.142Z,2.83
2022-12-24T01:38:56.837Z,3.45
2022-12-24T01:41:42.853Z,3.45
2022-12-24T01:44:36.897Z,3.90
2022-12-24T01:47:13.634Z,3.38
2022-12-24T01:49:44.528Z,3.55
2022-12-24T01:52:16.975Z,3.47
2022-12-24T01:54:52.134Z,3.95
2022-12-24T01:57:30.221Z,3.42
2022-12-24T02:00:00.638Z,6.13
2022-12-24T02:02:28.566Z,2.65
2022-12-24T02:05:03.337Z,2.95
2022-12-24T02:07:30.415Z,3.15
2022-12-24T02:09:59.265Z,3.22
2022-12-24T02:12:28.703Z,2.42
2022-12-24T02:14:55.992Z,3.13
2022-12-24T02:17:40.391Z,2.20
2022-12-24T02:20:39.701Z,3.13
2022-12-24T02:23:09.250Z,3.13
2022-12-24T02:25:42.058Z,2.97
2022-12-24T02:28:33.274Z,3.22
2022-12-24T02:31:04.876Z,2.15
2022-12-24T02:33:35.286Z,2.58
2022-12-24T02:36:11.538Z,3.50
2022-12-24T02:38:59.431Z,2.88
2022-12-24T02:41:53.414Z,3.35
2022-12-24T02:44:23.948Z,3.40
2022-12-24T02:46:51.834Z,3.28
2022-12-24T02:49:18.908Z,3.85
2022-12-24T02:51:45.558Z,3.33
2022-12-24T02:54:14.363Z,4.28
2022-12-24T02:56:49.716Z,3.00
2022-12-24T02:59:34.710Z,2.67
2022-12-24T03:02:29.897Z,2.85
2022-12-24T03:05:03.039Z,2.85
2022-12-24T03:07:47.286Z,2.72
2022-12-24T03:10:33.749Z,2.85
2022-12-24T03:13:08.748Z,3.40
2022-12-24T03:15:36.910Z,2.67
2022-12-24T03:18:06.518Z,3.00
2022-12-24T03:20:41.967Z,3.58
2022-12-24T03:23:08.801Z,3.90
2022-12-24T03:25:40.925Z,3.90
2022-12-24T03:30:35.543Z,4.50
2022-12-24T03:33:02.316Z,2.95
2022-12-24T03:35:28.995Z,3.30
2022-12-24T03:37:56.650Z,2.97
2022-12-24T03:40:23.517Z,2.95
2022-12-24T03:42:50.222Z,3.08
2022-12-24T03:45:18.050Z,3.38
2022-12-24T03:47:44.763Z,3.80
2022-12-24T03:50:11.523Z,3.53
2022-12-24T03:52:38.184Z,3.67
2022-12-24T03:55:05.438Z,2.85
2022-12-24T03:57:32.066Z,3.28
2022-12-24T03:59:58.747Z,3.70
2022-12-24T04:02:25.571Z,3.35
2022-12-24T04:04:52.353Z,3.30
2022-12-24T04:07:18.980Z,3.65
2022-12-24T04:09:45.633Z,4.30
2022-12-24T04:12:12.326Z,4.03
2022-12-24T04:14:38.992Z,2.95
2022-12-24T04:17:05.837Z,3.28
2022-12-24T04:19:32.621Z,2.65
2022-12-24T04:21:59.297Z,3.33
2022-12-24T04:24:26.020Z,3.65
2022-12-24T04:26:52.677Z,3.30
2022-12-24T04:29:19.406Z,4.63
2022-12-24T04:31:46.042Z,3.75
2022-12-24T04:34:12.748Z,3.22
2022-12-24T04:36:39.431Z,3.28
2022-12-24T04:39:06.326Z,3.60
2022-12-24T04:41:33.101Z,3.55
2022-12-24T04:43:59.927Z,3.67
2022-12-24T04:46:30.665Z,3.38
2022-12-24T04:48:58.327Z,3.97
2022-12-24T04:51:26.779Z,4.80
2022-12-24T04:53:53.904Z,3.65
2022-12-24T04:56:26.800Z,4.30
2022-12-24T04:58:53.841Z,3.72
2022-12-24T05:01:26.636Z,3.55
2022-12-24T05:03:54.227Z,4.30
2022-12-24T05:06:24.388Z,3.97
2022-12-24T05:08:53.364Z,4.40
2022-12-24T05:11:20.009Z,4.20
2022-12-24T05:13:48.222Z,4.88
2022-12-24T05:16:24.931Z,5.22
2022-12-24T05:18:52.894Z,4.68
2022-12-24T05:21:22.392Z,4.70
2022-12-24T05:24:07.933Z,4.50
2022-12-24T05:26:42.141Z,3.97
2022-12-24T05:29:11.973Z,4.60
2022-12-24T05:31:40.236Z,5.55
2022-12-24T05:34:08.335Z,4.40
2022-12-24T05:36:35.207Z,3.88
2022-12-24T05:39:02.257Z,4.50
2022-12-24T05:41:28.944Z,4.25
2022-12-24T05:43:55.920Z,3.95
2022-12-24T05:46:24.242Z,4.18
2022-12-24T05:48:52.175Z,4.00
2022-12-24T05:51:22.106Z,3.20
2022-12-24T05:53:50.605Z,5.47
2022-12-24T05:56:22.488Z,4.32
2022-12-24T05:58:50.319Z,4.45
2022-12-24T06:01:17.099Z,5.00
2022-12-24T06:03:44.002Z,3.72
2022-12-24T06:06:19.114Z,4.22
2022-12-24T06:08:46.131Z,3.95
2022-12-24T06:11:14.925Z,5.15
2022-12-24T06:13:43.006Z,3.80
2022-12-24T06:16:12.903Z,3.38
2022-12-24T06:18:39.880Z,3.72
2022-12-24T06:21:07.206Z,4.00
2022-12-24T06:23:36.331Z,4.47
2022-12-24T06:26:04.476Z,4.07
2022-12-24T06:28:33.406Z,3.17
2022-12-24T06:31:03.927Z,3.95
2022-12-24T06:33:32.069Z,3.28
2022-12-24T06:35:59.039Z,3.90
2022-12-24T06:38:26.150Z,3.60
2022-12-24T06:40:53.055Z,3.58
2022-12-24T06:43:19.814Z,3.63
2022-12-24T06:45:47.957Z,3.78
2022-12-24T06:48:15.658Z,3.72
2022-12-24T06:50:42.423Z,3.35
2022-12-24T06:53:10.264Z,3.85
2022-12-24T06:55:37.104Z,3.88
2022-12-24T06:58:04.571Z,4.25
2022-12-24T07:00:31.353Z,3.97
2022-12-24T07:02:58.342Z,4.63
2022-12-24T07:05:25.231Z,4.38
2022-12-24T07:07:51.923Z,4.57
2022-12-24T07:10:19.926Z,3.65
2022-12-24T07:12:46.736Z,3.70
2022-12-24T07:15:14.070Z,4.70
2022-12-24T07:17:40.975Z,4.30
2022-12-24T07:20:10.271Z,4.38
2022-12-24T07:22:36.933Z,4.45
2022-12-24T07:25:03.809Z,4.35
2022-12-24T07:27:30.938Z,4.82
2022-12-24T07:29:57.591Z,5.05
2022-12-24T07:32:24.242Z,5.57
2022-12-24T07:34:50.889Z,5.45
2022-12-24T07:37:17.586Z,4.93
2022-12-24T07:39:45.198Z,5.43
2022-12-24T07:42:11.901Z,5.05
2022-12-24T07:44:39.470Z,6.80
2022-12-24T07:47:06.265Z,5.55
2022-12-24T07:49:32.996Z,6.30
2022-12-24T07:52:00.051Z,7.60
2022-12-24T07:54:26.817Z,6.10
2022-12-24T07:56:53.513Z,6.63
2022-12-24T07:59:20.317Z,5.53
2022-12-24T08:01:47.326Z,6.28
2022-12-24T08:04:14.168Z,6.45
2022-12-24T08:06:41.017Z,6.22
2022-12-24T08:09:07.751Z,5.80
2022-12-24T08:11:34.457Z,6.65
2022-12-24T08:14:01.296Z,5.30
2022-12-24T08:16:27.955Z,7.82
2022-12-24T08:18:54.781Z,6.68
2022-12-24T08:21:21.502Z,7.00
2022-12-24T08:23:48.273Z,6.50
2022-12-24T08:26:14.999Z,6.13
2022-12-24T08:28:41.935Z,5.97
2022-12-24T08:31:08.859Z,5.68
2022-12-24T08:33:35.515Z,5.75
2022-12-24T08:36:03.041Z,5.03
2022-12-24T08:38:29.861Z,5.93
2022-12-24T08:40:56.518Z,5.03
2022-12-24T08:43:25.437Z,6.57
2022-12-24T08:45:52.683Z,5.82
2022-12-24T08:48:19.641Z,6.10
2022-12-24T08:50:46.395Z,6.55
2022-12-24T08:53:13.365Z,6.50
2022-12-24T08:55:40.129Z,5.70
2022-12-24T08:58:06.819Z,6.80
2022-12-24T09:00:33.493Z,6.63
2022-12-24T09:03:00.328Z,6.07
2022-12-24T09:05:27.521Z,5.57
2022-12-24T09:07:54.201Z,6.78
2022-12-24T09:10:21.219Z,7.28
2022-12-24T09:12:47.955Z,6.65
2022-12-24T09:15:15.076Z,6.15
2022-12-24T09:17:41.809Z,6.47
2022-12-24T09:20:09.195Z,6.93
2022-12-24T09:22:37.593Z,6.32
2022-12-24T09:25:06.192Z,6.35
2022-12-24T09:27:33.673Z,6.95
2022-12-24T09:30:00.548Z,6.10
2022-12-24T09:32:27.259Z,6.07
2022-12-24T09:34:54.327Z,5.60
2022-12-24T09:37:21.042Z,5.50
2022-12-24T09:39:47.821Z,5.07
2022-12-24T09:42:21.856Z,5.22
2022-12-24T09:45:00.836Z,5.63
2022-12-24T09:47:59.811Z,5.95
2022-12-24T09:50:31.291Z,5.68
2022-12-24T09:53:01.232Z,5.50
2022-12-24T09:55:35.955Z,5.75
2022-12-24T09:58:06.614Z,5.70
2022-12-24T10:00:37.478Z,5.68
2022-12-24T10:03:15.128Z,5.97
2022-12-24T10:05:49.428Z,4.90
2022-12-24T10:08:28.025Z,6.88
2022-12-24T10:11:00.348Z,5.22
2022-12-24T10:14:01.853Z,4.32
2022-12-24T10:16:51.457Z,5.43
2022-12-24T10:19:29.308Z,6.78
2022-12-24T10:22:47.182Z,6.70
2022-12-24T10:25:23.593Z,5.93
2022-12-24T10:27:51.867Z,5.10
2022-12-24T10:30:23.236Z,5.00
2022-12-24T10:32:52.677Z,4.68
2022-12-24T10:35:21.960Z,3.05
2022-12-24T10:37:51.006Z,2.85
2022-12-24T10:40:42.283Z,2.03
2022-12-24T10:43:15.974Z,2.70
2022-12-24T10:45:49.705Z,1.83
2022-12-24T10:48:25.760Z,2.05
2022-12-24T10:51:14.735Z,1.95
2022-12-24T10:53:51.743Z,2.03
2022-12-24T10:56:19.647Z,1.70
2022-12-24T10:58:52.716Z,2.63
2022-12-24T11:01:20.666Z,3.63
2022-12-24T11:04:01.084Z,2.78
2022-12-24T11:06:27.736Z,3.65
2022-12-24T11:08:54.422Z,4.38
2022-12-24T11:11:21.579Z,5.05
2022-12-24T11:13:51.225Z,5.15
2022-12-24T11:16:21.127Z,5.68
2022-12-24T11:18:52.314Z,5.60
2022-12-24T11:21:36.200Z,6.68
2022-12-24T11:24:12.370Z,6.25
2022-12-24T11:26:41.266Z,6.65
2022-12-24T11:29:25.835Z,7.05
2022-12-24T11:32:09.966Z,5.82
2022-12-24T11:34:36.674Z,7.05
2022-12-24T11:37:19.242Z,6.20
2022-12-24T11:40:00.614Z,6.65
2022-12-24T11:42:37.133Z,7.30
2022-12-24T11:45:14.542Z,6.70
2022-12-24T11:47:41.844Z,6.68
2022-12-24T11:50:22.356Z,7.18
2022-12-24T11:53:16.824Z,6.32
2022-12-24T11:55:51.311Z,6.10
2022-12-24T11:58:31.161Z,6.00
2022-12-24T12:01:18.476Z,8.05
2022-12-24T12:03:49.518Z,6.05
2022-12-24T12:06:31.245Z,4.72
2022-12-24T12:09:04.411Z,5.78
2022-12-24T12:11:33.850Z,4.70
2022-12-24T12:14:03.265Z,5.30
2022-12-24T12:17:00.718Z,5.00
2022-12-24T12:19:32.683Z,4.72
2022-12-24T12:22:04.030Z,5.05
2022-12-24T12:24:37.219Z,5.65
2022-12-24T12:27:19.781Z,4.50
2022-12-24T12:29:52.265Z,4.60
2022-12-24T12:32:27.637Z,4.35
2022-12-24T12:35:04.180Z,6.90
2022-12-24T12:37:43.149Z,4.38
2022-12-24T12:40:17.307Z,5.10
2022-12-24T12:43:05.821Z,4.85
2022-12-24T12:45:43.276Z,5.32
2022-12-24T12:48:27.574Z,5.78
2022-12-24T12:51:03.379Z,4.50
2022-12-24T12:53:53.810Z,4.82
2022-12-24T12:56:32.021Z,3.85
2022-12-24T12:59:15.884Z,4.88
2022-12-24T13:02:12.472Z,5.00
2022-12-24T13:04:57.701Z,4.90
2022-12-24T13:07:56.887Z,4.68
2022-12-24T13:10:44.539Z,5.43
2022-12-24T13:13:33.008Z,4.53
2022-12-24T13:16:18.732Z,6.20
2022-12-24T13:19:23.033Z,5.50
2022-12-24T13:21:51.458Z,5.70
2022-12-24T13:24:27.886Z,4.78
2022-12-24T13:27:05.104Z,4.82
2022-12-24T13:30:02.164Z,4.45
2022-12-24T13:32:33.750Z,4.68
2022-12-24T13:35:04.774Z,4.68
2022-12-24T13:37:31.626Z,4.82
2022-12-24T13:40:30.762Z,5.40
2022-12-24T13:43:06.491Z,4.35
2022-12-24T13:45:39.415Z,4.72
2022-12-24T13:48:06.163Z,4.95
2022-12-24T13:50:57.815Z,5.75
2022-12-24T13:53:43.634Z,5.82
2022-12-24T13:56:25.703Z,4.75
2022-12-24T13:59:09.041Z,4.78
2022-12-24T14:01:39.811Z,4.93
2022-12-24T14:04:10.182Z,4.85
2022-12-24T14:06:40.748Z,5.07
2022-12-24T14:09:18.055Z,4.85
2022-12-24T14:12:04.662Z,4.47
2022-12-24T14:14:32.939Z,4.95
2022-12-24T14:17:25.552Z,5.47
2022-12-24T14:19:54.922Z,5.38
2022-12-24T14:22:38.500Z,4.13
2022-12-24T14:25:24.995Z,4.15
2022-12-24T14:27:58.914Z,5.05
2022-12-24T14:30:28.174Z,4.72
2022-12-24T14:32:55.119Z,4.13
2022-12-24T14:35:24.248Z,4.70
2022-12-24T14:38:05.319Z,3.60
2022-12-24T14:40:37.208Z,4.45
2022-12-24T14:43:34.741Z,5.18
2022-12-24T14:46:10.433Z,4.78
2022-12-24T14:48:53.318Z,4.25
2022-12-24T14:51:42.089Z,4.43
2022-12-24T14:54:23.506Z,4.63
2022-12-24T14:57:10.214Z,4.93
2022-12-24T14:59:52.384Z,5.05
2022-12-24T15:05:25.628Z,3.90
2022-12-24T15:08:02.634Z,4.38
2022-12-24T15:10:38.237Z,4.63
2022-12-24T15:13:06.944Z,5.63
2022-12-24T15:15:34.518Z,6.10
2022-12-24T15:18:03.397Z,4.85
2022-12-24T15:20:31.410Z,4.28
2022-12-24T15:22:59.322Z,4.63
2022-12-24T15:25:28.018Z,5.35
2022-12-24T15:27:54.909Z,5.70
2022-12-24T15:30:25.185Z,5.35
2022-12-24T15:32:54.453Z,6.03
2022-12-24T15:35:43.102Z,4.57
2022-12-24T15:38:25.546Z,6.43
2022-12-24T15:40:53.101Z,5.68
2022-12-24T15:43:20.218Z,5.10
2022-12-24T15:45:48.562Z,5.60
2022-12-24T15:48:26.768Z,5.07
2022-12-24T15:51:02.678Z,5.15
2022-12-24T15:53:33.085Z,4.90
2022-12-24T15:56:09.342Z,4.78
2022-12-24T15:58:45.645Z,5.57
2022-12-24T16:01:18.014Z,6.47
2022-12-24T16:03:50.688Z,4.13
2022-12-24T16:06:17.673Z,3.22
2022-12-24T16:08:45.512Z,3.35
2022-12-24T16:11:23.937Z,3.78
2022-12-24T16:13:50.730Z,3.95
2022-12-24T16:16:29.985Z,4.13
2022-12-24T16:19:01.153Z,4.80
2022-12-24T16:21:35.171Z,4.17
2022-12-24T16:24:21.322Z,4.68
2022-12-24T16:26:48.372Z,4.35
2022-12-24T16:29:16.085Z,4.50
2022-12-24T16:31:51.601Z,3.33
2022-12-24T16:34:20.652Z,3.50
2022-12-24T16:36:47.424Z,4.43
2022-12-24T16:39:25.718Z,3.72
2022-12-24T16:42:19.651Z,4.20
2022-12-24T16:44:52.963Z,4.75
2022-12-24T16:47:33.402Z,5.38
2022-12-24T16:50:03.020Z,5.65
2022-12-24T16:52:33.532Z,3.92
2022-12-24T16:55:01.401Z,4.10
2022-12-24T16:57:28.672Z,5.05
2022-12-24T16:59:55.714Z,4.30
2022-12-24T17:02:24.031Z,4.40
2022-12-24T17:04:51.406Z,6.45
2022-12-24T17:07:20.066Z,5.25
2022-12-24T17:09:46.721Z,6.22
2022-12-24T17:12:14.229Z,8.35
2022-12-24T17:14:42.421Z,9.63
2022-12-24T17:17:24.669Z,8.45
2022-12-24T17:22:18.009Z,8.05
2022-12-24T17:24:44.683Z,7.90
2022-12-24T17:27:11.904Z,6.20
2022-12-24T17:29:38.709Z,7.38
2022-12-24T17:32:05.576Z,6.72
2022-12-24T17:34:32.571Z,6.53
2022-12-24T17:36:59.183Z,7.35
2022-12-24T17:39:28.061Z,7.93
2022-12-24T17:41:55.001Z,7.63
2022-12-24T17:44:21.635Z,7.43
2022-12-24T17:46:48.338Z,7.00
2022-12-24T17:49:15.170Z,7.13
2022-12-24T17:51:45.529Z,7.13
2022-12-24T17:54:13.203Z,7.05
2022-12-24T17:56:39.972Z,7.97
2022-12-24T17:59:06.674Z,8.55
2022-12-24T18:01:33.713Z,9.60
2022-12-24T18:04:03.011Z,7.90
2022-12-24T18:06:30.216Z,8.27
2022-12-24T18:08:57.333Z,13.70
2022-12-24T18:11:30.418Z,12.95
2022-12-24T18:13:57.741Z,10.40
2022-12-24T18:16:30.465Z,10.70
2022-12-24T18:18:58.100Z,12.95
2022-12-24T18:21:27.609Z,10.10
2022-12-24T18:23:57.699Z,9.27
2022-12-24T18:26:26.630Z,8.05
2022-12-24T18:28:55.429Z,6.93
2022-12-24T18:31:23.823Z,8.55
2022-12-24T18:33:51.748Z,7.75
2022-12-24T18:36:19.205Z,6.22
2022-12-24T18:38:47.498Z,6.72
2022-12-24T18:41:17.628Z,10.52
2022-12-24T18:43:44.342Z,7.97
2022-12-24T18:46:13.898Z,12.10
2022-12-24T18:48:40.835Z,10.93
2022-12-24T18:51:09.215Z,8.20
2022-12-24T18:53:38.422Z,8.20
2022-12-24T18:56:20.816Z,9.68
2022-12-24T18:58:55.426Z,12.70
2022-12-24T19:01:31.171Z,11.68
2022-12-24T19:04:03.787Z,13.43
2022-12-24T19:06:39.024Z,10.05
2022-12-24T19:09:06.156Z,10.32
2022-12-24T19:11:45.433Z,8.77
2022-12-24T19:14:16.012Z,9.80
2022-12-24T19:17:11.114Z,12.18
2022-12-24T19:19:38.109Z,13.75
2022-12-24T19:22:05.043Z,8.68
2022-12-24T19:24:31.747Z,9.77
2022-12-24T19:26:58.385Z,9.13
2022-12-24T19:29:25.023Z,11.05
2022-12-24T19:31:51.760Z,14.68
2022-12-24T19:34:18.424Z,13.75
2022-12-24T19:36:46.676Z,10.40
2022-12-24T19:39:13.377Z,10.20
2022-12-24T19:41:40.037Z,8.75
2022-12-24T19:44:06.689Z,8.43
2022-12-24T19:46:34.794Z,8.13
2022-12-24T19:49:05.245Z,8.07
2022-12-24T19:51:33.175Z,8.90
2022-12-24T19:54:00.604Z,8.65
2022-12-24T19:56:29.517Z,9.35
2022-12-24T19:59:00.031Z,9.60
2022-12-24T20:01:30.014Z,9.68
2022-12-24T20:03:56.915Z,8.98
2022-12-24T20:06:26.340Z,10.77
2022-12-24T20:08:57.273Z,10.15
2022-12-24T20:11:23.985Z,14.65
2022-12-24T20:14:12.188Z,10.30
2022-12-24T20:16:38.996Z,9.05
2022-12-24T20:19:07.580Z,11.32
2022-12-24T20:21:39.326Z,9.63
2022-12-24T20:24:06.791Z,9.32
2022-12-24T20:26:33.685Z,10.40
2022-12-24T20:29:08.866Z,9.05
2022-12-24T20:31:37.222Z,9.95
2022-12-24T20:34:05.325Z,11.48
2022-12-24T20:36:32.143Z,8.45
2022-12-24T20:38:59.696Z,10.30
2022-12-24T20:41:28.422Z,10.73
2022-12-24T20:43:57.740Z,10.35
2022-12-24T20:46:24.776Z,12.55
2022-12-24T20:48:52.229Z,12.18
2022-12-24T20:51:25.160Z,14.05
2022-12-24T20:53:54.234Z,12.65
2022-12-24T20:56:21.823Z,13.23
2022-12-24T20:58:49.183Z,13.68
2022-12-24T21:01:18.953Z,14.93
2022-12-24T21:03:46.157Z,14.30
2022-12-24T21:06:13.834Z,14.00
2022-12-24T21:08:43.804Z,14.35
2022-12-24T21:11:29.089Z,14.20
2022-12-24T21:13:56.771Z,13.65
2022-12-24T21:16:23.516Z,12.40
2022-12-24T21:19:06.334Z,12.63
2022-12-24T21:24:32.155Z,13.27
2022-12-24T21:26:58.914Z,13.82
2022-12-24T21:29:27.665Z,15.25
2022-12-24T21:31:54.518Z,14.75
2022-12-24T21:34:21.230Z,18.88
2022-12-24T21:36:48.206Z,15.50
2022-12-24T21:39:14.877Z,21.05
2022-12-24T21:41:41.628Z,17.95
2022-12-24T21:44:08.308Z,15.73
2022-12-24T21:46:35.047Z,16.55
2022-12-24T21:49:20.442Z,15.60
2022-12-24T21:51:48.888Z,15.35
2022-12-24T21:54:30.543Z,15.25
2022-12-24T21:57:18.751Z,13.25
2022-12-24T21:59:45.821Z,15.07
2022-12-24T22:02:15.151Z,14.77
2022-12-24T22:04:42.907Z,18.42
2022-12-24T22:07:42.907Z,17.70
2022-12-24T22:10:30.725Z,17.40
2022-12-24T22:12:59.789Z,14.73
2022-12-24T22:15:27.378Z,15.60
2022-12-24T22:17:54.084Z,16.23
2022-12-24T22:20:20.835Z,16.10
2022-12-24T22:22:48.856Z,17.13
2022-12-24T22:25:16.598Z,16.52
2022-12-24T22:27:43.979Z,15.82
2022-12-24T22:30:20.945Z,16.00
2022-12-24T22:33:00.127Z,14.00
2022-12-24T22:35:40.910Z,16.00
2022-12-24T22:38:09.306Z,14.55
2022-12-24T22:40:38.525Z,13.77
2022-12-24T22:43:05.259Z,13.98
2022-12-24T22:45:31.930Z,15.75
2022-12-24T22:47:58.552Z,13.82
2022-12-24T22:50:25.259Z,12.43
2022-12-24T22:52:53.226Z,14.40
2022-12-24T22:55:20.833Z,14.90
2022-12-24T22:57:47.669Z,14.88
2022-12-24T23:00:44.958Z,15.55
2022-12-24T23:03:12.189Z,14.48
2022-12-24T23:05:39.578Z,15.18
2022-12-24T23:08:07.159Z,14.20
2022-12-24T23:10:34.707Z,14.00
2022-12-24T23:13:19.955Z,13.38
2022-12-24T23:15:46.739Z,14.95
2022-12-24T23:18:13.475Z,14.15
2022-12-24T23:20:43.089Z,15.50
2022-12-24T23:23:09.772Z,14.15
2022-12-24T23:25:36.550Z,14.45
2022-12-24T23:28:03.565Z,12.93
2022-12-24T23:30:30.699Z,12.02
2022-12-24T23:32:57.589Z,12.35
2022-12-24T23:35:26.987Z,13.70
2022-12-24T23:37:53.961Z,11.98
2022-12-24T23:40:20.741Z,13.15
2022-12-24T23:42:47.538Z,12.07
2022-12-24T23:45:14.346Z,11.23
2022-12-24T23:47:41.055Z,12.88
2022-12-24T23:50:08.419Z,11.20
2022-12-24T23:52:35.105Z,9.93
2022-12-24T23:55:01.785Z,11.05
2022-12-24T23:57:28.516Z,12.95
2022-12-24T23:59:55.173Z,10.75
